Terminal Aerodrome Forecast
Issued by NWS Sterling, VA

Current Version | Previous Version | Graphics & Text | Print | Product List | Glossary On
Versions: 1 2 3 4 5 6 7 8 9 10 11 12 13 14 15 16 17 18 19 20 21 22
000
FTUS41 KLWX 300800 AAA
TAFIAD
TAF AMD
KIAD 300829Z 3008/3112 00000KT P6SM SKC
     FM301400 28005KT P6SM BKN050
     FM302300 20005KT P6SM SCT050
     FM310100 19005KT P6SM BKN050
     FM310300 18004KT P6SM SCT050=

USA.gov is the U.S. government's official web portal to all federal, state and local government web resources and services.